Time;durP1;ratioP1;P1;durP2;ratioP2;P2;SDS_P1;SDS_P2;PMS_P1;PMS_P2;Temp;Humidity;BMP_temperature;BMP_pressure;BME280_temperature;BME280_humidity;BME280_pressure;Samples;Min_cycle;Max_cycle;Signal;HPM_P1;HPM_P2
2022/11/02 00:01:22;;;;;;;;;;;18.20;99.90;;;;;;5005174;28;20430;-65
2022/11/02 00:03:50;;;;;;;;;;;18.20;99.90;;;;;;4990508;28;19925;-66
2022/11/02 00:06:17;;;;;;;;;;;18.20;99.90;;;;;;5008167;28;19944;-64
2022/11/02 00:08:44;;;;;;;;;;;18.20;99.90;;;;;;5007804;28;20524;-64
2022/11/02 00:11:13;;;;;;;;;;;18.20;99.90;;;;;;5006600;28;20305;-65
2022/11/02 00:13:40;;;;;;;;;;;18.20;99.90;;;;;;5000741;28;19936;-65
2022/11/02 00:16:09;;;;;;;;;;;18.20;99.90;;;;;;5003284;28;19924;-64
2022/11/02 00:18:37;;;;;;;;;;;18.20;99.90;;;;;;5008053;28;19925;-63
2022/11/02 00:21:04;;;;;;;;;;;18.20;99.90;;;;;;5008030;28;20465;-64
2022/11/02 00:23:31;;;;;;;;;;;18.20;99.90;;;;;;5003812;28;19925;-66
2022/11/02 00:26:00;;;;;;;;;;;18.20;99.90;;;;;;4999931;28;20304;-64
2022/11/02 00:28:29;;;;;;;;;;;18.20;99.90;;;;;;5004818;28;20587;-63
2022/11/02 00:30:56;;;;;;;;;;;18.20;99.90;;;;;;5006663;28;19925;-64
2022/11/02 00:33:25;;;;;;;;;;;18.20;99.90;;;;;;5008810;28;19994;-65
2022/11/02 00:35:53;;;;;;;;;;;18.20;99.90;;;;;;5009834;28;19967;-64
2022/11/02 00:38:20;;;;;;;;;;;18.20;99.90;;;;;;5012278;28;20348;-63
2022/11/02 00:40:47;;;;;;;;;;;18.20;99.90;;;;;;5007867;28;19936;-64
2022/11/02 00:43:14;;;;;;;;;;;18.20;99.90;;;;;;5011202;28;19956;-64
2022/11/02 00:45:42;;;;;;;;;;;18.20;99.90;;;;;;5008748;28;20285;-65
2022/11/02 00:48:09;;;;;;;;;;;18.20;99.90;;;;;;5011787;28;20460;-65
2022/11/02 00:50:36;;;;;;;;;;;18.20;99.90;;;;;;5008931;28;19935;-65
2022/11/02 00:53:03;;;;;;;;;;;18.10;99.90;;;;;;5005047;28;19944;-65
2022/11/02 00:55:30;;;;;;;;;;;18.20;99.90;;;;;;5004845;28;20357;-65
2022/11/02 00:58:01;;;;;;;;;;;18.20;99.90;;;;;;5010778;28;19922;-64
2022/11/02 01:00:29;;;;;;;;;;;18.20;99.90;;;;;;5007846;28;19925;-65
2022/11/02 01:03:00;;;;;;;;;;;18.10;99.90;;;;;;5010909;28;19925;-64
2022/11/02 01:05:27;;;;;;;;;;;18.10;99.90;;;;;;5012910;28;20622;-65
2022/11/02 01:07:55;;;;;;;;;;;18.20;99.90;;;;;;5011369;28;20197;-65
2022/11/02 01:10:24;;;;;;;;;;;18.20;99.90;;;;;;5005590;28;20300;-65
2022/11/02 01:12:51;;;;;;;;;;;18.10;99.90;;;;;;5010908;28;19949;-64
2022/11/02 01:15:18;;;;;;;;;;;18.10;99.90;;;;;;5008610;28;19936;-65
2022/11/02 01:17:45;;;;;;;;;;;18.10;99.90;;;;;;5011259;28;19940;-64
2022/11/02 01:20:13;;;;;;;;;;;18.10;99.90;;;;;;5006855;28;19925;-64
2022/11/02 01:22:40;;;;;;;;;;;18.10;99.90;;;;;;5010486;28;19928;-65
2022/11/02 01:25:08;;;;;;;;;;;18.10;99.90;;;;;;5002993;28;19937;-64
2022/11/02 01:27:35;;;;;;;;;;;18.10;99.90;;;;;;5010709;28;19932;-64
2022/11/02 01:30:03;;;;;;;;;;;18.10;99.90;;;;;;5003793;28;20407;-63
2022/11/02 01:32:30;;;;;;;;;;;18.10;99.90;;;;;;5003347;28;19921;-65
2022/11/02 01:34:58;;;;;;;;;;;18.10;99.90;;;;;;5005955;28;19930;-65
2022/11/02 01:37:25;;;;;;;;;;;18.10;99.90;;;;;;5009096;28;19997;-65
2022/11/02 01:39:52;;;;;;;;;;;18.10;99.90;;;;;;5011189;28;19925;-65
2022/11/02 01:42:20;;;;;;;;;;;18.10;99.90;;;;;;5007382;28;20006;-66
2022/11/02 01:44:47;;;;;;;;;;;18.10;99.90;;;;;;5009155;28;19929;-64
2022/11/02 01:47:25;;;;;;;;;;;18.10;99.90;;;;;;5009676;28;20393;-63
2022/11/02 01:49:55;;;;;;;;;;;18.10;99.90;;;;;;5010564;28;19932;-65
2022/11/02 01:52:27;;;;;;;;;;;18.10;99.90;;;;;;5006039;28;20293;-65
2022/11/02 01:54:57;;;;;;;;;;;18.10;99.90;;;;;;5009445;28;20341;-65
2022/11/02 01:57:26;;;;;;;;;;;18.10;99.90;;;;;;5003981;28;19925;-65
2022/11/02 01:59:55;;;;;;;;;;;18.10;99.90;;;;;;5007719;28;19932;-65
2022/11/02 02:02:23;;;;;;;;;;;18.10;99.90;;;;;;5002054;28;19932;-63
2022/11/02 02:04:53;;;;;;;;;;;18.10;99.90;;;;;;5005702;28;19928;-64
2022/11/02 02:07:23;;;;;;;;;;;18.10;99.90;;;;;;5006990;28;19921;-64
2022/11/02 02:09:51;;;;;;;;;;;18.10;99.90;;;;;;5007108;28;19937;-64
2022/11/02 02:12:19;;;;;;;;;;;18.10;99.90;;;;;;5009663;28;19926;-65
2022/11/02 02:14:46;;;;;;;;;;;18.10;99.90;;;;;;5006657;28;19921;-64
2022/11/02 02:17:19;;;;;;;;;;;18.00;99.90;;;;;;5009583;28;19925;-64
2022/11/02 02:19:52;;;;;;;;;;;18.00;99.90;;;;;;4996961;28;20313;-64
2022/11/02 02:22:34;;;;;;;;;;;18.10;99.90;;;;;;5008578;28;19933;-63
2022/11/02 02:25:01;;;;;;;;;;;18.00;99.90;;;;;;5000772;28;19922;-65
2022/11/02 02:27:47;;;;;;;;;;;18.00;99.90;;;;;;5004570;28;20420;-65
2022/11/02 02:30:15;;;;;;;;;;;18.00;99.90;;;;;;4987137;28;19925;-65
2022/11/02 02:32:45;;;;;;;;;;;18.00;99.90;;;;;;4987036;28;19933;-66
2022/11/02 02:35:16;;;;;;;;;;;18.00;99.90;;;;;;4982225;28;19951;-65
2022/11/02 02:37:46;;;;;;;;;;;18.00;99.90;;;;;;4978643;28;19937;-64
2022/11/02 02:40:37;;;;;;;;;;;18.00;99.90;;;;;;5002332;28;19922;-63
2022/11/02 02:43:07;;;;;;;;;;;18.00;99.90;;;;;;4985256;28;19922;-64
2022/11/02 02:45:54;;;;;;;;;;;18.00;99.90;;;;;;4982504;28;20374;-63
2022/11/02 02:48:23;;;;;;;;;;;18.00;99.90;;;;;;4990503;28;19929;-64
2022/11/02 02:50:52;;;;;;;;;;;18.00;99.90;;;;;;4987946;28;19922;-64
2022/11/02 02:53:44;;;;;;;;;;;18.00;99.90;;;;;;5004846;28;19926;-64
2022/11/02 02:56:14;;;;;;;;;;;18.00;99.90;;;;;;4977162;28;19922;-66
2022/11/02 02:58:46;;;;;;;;;;;18.00;99.90;;;;;;4987605;28;19925;-64
2022/11/02 03:01:14;;;;;;;;;;;18.00;99.90;;;;;;4986748;28;20005;-64
2022/11/02 03:03:43;;;;;;;;;;;18.00;99.90;;;;;;4988639;28;19925;-64
2022/11/02 03:06:15;;;;;;;;;;;18.00;99.90;;;;;;5004183;28;20401;-64
2022/11/02 03:08:50;;;;;;;;;;;18.00;99.90;;;;;;4987229;28;19933;-64
2022/11/02 03:11:19;;;;;;;;;;;18.00;99.90;;;;;;4984264;28;19926;-64
2022/11/02 03:13:50;;;;;;;;;;;18.00;99.90;;;;;;4993003;28;20318;-65
2022/11/02 03:16:24;;;;;;;;;;;18.00;99.90;;;;;;4984606;28;19926;-64
2022/11/02 03:19:10;;;;;;;;;;;18.00;99.90;;;;;;4996099;28;19926;-64
2022/11/02 03:21:42;;;;;;;;;;;18.00;99.90;;;;;;4989491;28;19921;-65
2022/11/02 03:24:15;;;;;;;;;;;18.00;99.90;;;;;;5003157;28;19930;-65
2022/11/02 03:26:49;;;;;;;;;;;17.90;99.90;;;;;;4991948;28;19928;-64
2022/11/02 03:29:18;;;;;;;;;;;18.00;99.90;;;;;;5006421;28;19932;-63
2022/11/02 03:31:53;;;;;;;;;;;18.00;99.90;;;;;;5006060;28;19928;-64
2022/11/02 03:34:23;;;;;;;;;;;17.90;99.90;;;;;;5003344;28;20393;-64
2022/11/02 03:36:53;;;;;;;;;;;18.00;99.90;;;;;;4987463;28;19925;-64
2022/11/02 03:39:24;;;;;;;;;;;17.90;99.90;;;;;;4996842;28;19937;-64
2022/11/02 03:41:52;;;;;;;;;;;17.90;99.90;;;;;;4988728;28;19928;-62
2022/11/02 03:44:22;;;;;;;;;;;18.00;99.90;;;;;;4986488;28;19946;-64
2022/11/02 03:46:51;;;;;;;;;;;17.90;99.90;;;;;;4982894;28;19937;-65
2022/11/02 03:49:19;;;;;;;;;;;17.90;99.90;;;;;;4999773;28;19929;-65
2022/11/02 03:51:48;;;;;;;;;;;17.90;99.90;;;;;;4979492;28;19926;-66
2022/11/02 03:54:41;;;;;;;;;;;17.90;99.90;;;;;;4984666;28;19922;-64
2022/11/02 03:57:10;;;;;;;;;;;17.90;99.90;;;;;;4987604;28;19930;-65
2022/11/02 03:59:39;;;;;;;;;;;17.90;99.90;;;;;;5002390;28;20449;-65
2022/11/02 04:02:08;;;;;;;;;;;17.90;99.90;;;;;;5002206;28;19925;-65
2022/11/02 04:04:46;;;;;;;;;;;17.90;99.90;;;;;;4999013;28;19921;-65
2022/11/02 04:07:14;;;;;;;;;;;17.90;99.90;;;;;;5002794;28;19945;-64
2022/11/02 04:09:41;;;;;;;;;;;17.90;99.90;;;;;;4991078;28;19933;-64
2022/11/02 04:14:54;;;;;;;;;;;17.90;99.90;;;;;;4991988;28;20309;-65
2022/11/02 04:20:11;;;;;;;;;;;17.90;99.90;;;;;;5005050;28;20390;-65
2022/11/02 04:25:25;;;;;;;;;;;17.90;99.90;;;;;;5002482;28;19929;-64
2022/11/02 04:28:07;;;;;;;;;;;17.90;99.90;;;;;;4992940;28;19925;-66
2022/11/02 04:30:38;;;;;;;;;;;17.90;99.90;;;;;;4995958;28;19933;-65
2022/11/02 04:36:02;;;;;;;;;;;17.80;99.90;;;;;;5002056;28;20297;-65
2022/11/02 04:38:39;;;;;;;;;;;17.90;99.90;;;;;;5006572;28;19930;-65
2022/11/02 04:44:30;;;;;;;;;;;17.80;99.90;;;;;;4965109;28;19926;-65
2022/11/02 04:47:03;;;;;;;;;;;17.80;99.90;;;;;;5005885;28;19929;-64
2022/11/02 04:49:33;;;;;;;;;;;17.80;99.90;;;;;;4986088;28;20402;-65
2022/11/02 04:52:01;;;;;;;;;;;17.80;99.90;;;;;;5011348;28;20453;-67
2022/11/02 04:54:32;;;;;;;;;;;17.80;99.90;;;;;;5011833;28;19929;-65
2022/11/02 04:57:01;;;;;;;;;;;17.90;99.90;;;;;;4993230;28;19922;-66
2022/11/02 04:59:30;;;;;;;;;;;17.90;99.90;;;;;;4991332;28;19941;-64
2022/11/02 05:01:57;;;;;;;;;;;17.90;99.90;;;;;;4993433;28;19925;-64
2022/11/02 05:04:25;;;;;;;;;;;17.90;99.90;;;;;;5007125;28;19926;-65
2022/11/02 05:06:52;;;;;;;;;;;18.00;99.90;;;;;;4997098;28;19933;-66
2022/11/02 05:09:26;;;;;;;;;;;18.00;99.90;;;;;;5005246;28;19944;-65
2022/11/02 05:11:53;;;;;;;;;;;18.00;99.90;;;;;;4994313;28;20424;-65
2022/11/02 05:14:20;;;;;;;;;;;17.90;99.90;;;;;;5006493;28;19929;-65
2022/11/02 05:16:47;;;;;;;;;;;18.00;99.90;;;;;;4990485;28;20408;-64
2022/11/02 05:19:14;;;;;;;;;;;18.00;99.90;;;;;;4991407;28;20487;-65
2022/11/02 05:21:44;;;;;;;;;;;18.00;99.90;;;;;;5006074;28;19932;-63
2022/11/02 05:24:12;;;;;;;;;;;18.00;99.90;;;;;;5005508;28;19926;-65
2022/11/02 05:26:39;;;;;;;;;;;18.00;99.90;;;;;;5007765;28;19925;-66
2022/11/02 05:29:08;;;;;;;;;;;18.00;99.90;;;;;;5003780;28;19926;-64
2022/11/02 05:31:36;;;;;;;;;;;18.00;99.90;;;;;;5004523;28;20393;-66
2022/11/02 05:34:03;;;;;;;;;;;18.00;99.90;;;;;;5012474;28;19933;-65
2022/11/02 05:36:30;;;;;;;;;;;18.00;99.90;;;;;;5006516;28;19926;-65
2022/11/02 05:38:58;;;;;;;;;;;18.00;99.90;;;;;;5009414;28;19926;-65
2022/11/02 05:41:26;;;;;;;;;;;18.00;99.90;;;;;;4993024;28;20385;-65
2022/11/02 05:43:55;;;;;;;;;;;18.00;99.90;;;;;;5010288;28;20785;-65
2022/11/02 05:46:24;;;;;;;;;;;18.00;99.90;;;;;;5009483;28;19932;-64
2022/11/02 05:48:51;;;;;;;;;;;18.00;99.90;;;;;;5010212;28;19925;-67
2022/11/02 05:51:18;;;;;;;;;;;17.90;99.90;;;;;;5011608;28;19926;-65
2022/11/02 05:53:45;;;;;;;;;;;18.00;99.90;;;;;;5004744;28;20054;-65
2022/11/02 05:56:13;;;;;;;;;;;17.90;99.90;;;;;;5010654;28;19926;-63
2022/11/02 05:58:40;;;;;;;;;;;18.00;99.90;;;;;;5009134;28;19926;-63
2022/11/02 06:01:08;;;;;;;;;;;18.00;99.90;;;;;;5010401;28;19932;-65
2022/11/02 06:03:35;;;;;;;;;;;18.00;99.90;;;;;;5010169;28;19958;-66
2022/11/02 06:06:04;;;;;;;;;;;18.00;99.90;;;;;;5009213;28;19952;-65
2022/11/02 06:08:32;;;;;;;;;;;18.10;99.90;;;;;;5009890;28;19925;-64
2022/11/02 06:11:09;;;;;;;;;;;18.10;99.90;;;;;;5005904;28;19926;-65
2022/11/02 06:13:37;;;;;;;;;;;18.20;99.90;;;;;;5009200;28;19952;-65
2022/11/02 06:16:06;;;;;;;;;;;18.20;99.90;;;;;;5011726;28;19933;-64
2022/11/02 06:18:34;;;;;;;;;;;18.20;99.90;;;;;;4997456;28;20294;-64
2022/11/02 06:21:01;;;;;;;;;;;18.30;99.90;;;;;;5009696;28;20309;-65
2022/11/02 06:23:28;;;;;;;;;;;18.30;99.90;;;;;;5010358;28;19929;-64
2022/11/02 06:25:56;;;;;;;;;;;18.30;99.90;;;;;;4984356;28;19922;-65
2022/11/02 06:28:24;;;;;;;;;;;18.30;99.90;;;;;;4985173;28;19941;-65
2022/11/02 06:30:51;;;;;;;;;;;18.30;99.90;;;;;;4970004;28;20402;-66
2022/11/02 06:33:18;;;;;;;;;;;18.40;99.90;;;;;;4969173;28;19926;-65
2022/11/02 06:35:46;;;;;;;;;;;18.40;99.90;;;;;;4970145;28;19922;-65
2022/11/02 06:38:14;;;;;;;;;;;18.40;99.90;;;;;;4971252;28;19922;-65
2022/11/02 06:40:42;;;;;;;;;;;18.40;99.90;;;;;;4976730;28;19926;-64
2022/11/02 06:43:11;;;;;;;;;;;18.30;99.90;;;;;;4966759;28;20408;-64
2022/11/02 06:45:43;;;;;;;;;;;18.30;99.90;;;;;;4971322;28;19922;-65
2022/11/02 06:48:10;;;;;;;;;;;18.30;99.90;;;;;;4970206;28;19922;-65
2022/11/02 06:50:37;;;;;;;;;;;18.30;99.90;;;;;;4971344;28;20317;-65
2022/11/02 06:53:04;;;;;;;;;;;18.30;99.90;;;;;;4964080;28;19926;-65
2022/11/02 06:55:36;;;;;;;;;;;18.30;99.90;;;;;;4971276;28;19941;-66
2022/11/02 06:58:03;;;;;;;;;;;18.30;99.90;;;;;;4978547;28;19929;-65
2022/11/02 07:00:30;;;;;;;;;;;18.30;99.90;;;;;;4972356;28;19937;-65
2022/11/02 07:02:58;;;;;;;;;;;18.20;99.90;;;;;;4975663;28;20405;-64
2022/11/02 07:05:25;;;;;;;;;;;18.30;99.90;;;;;;4980134;28;19944;-65
2022/11/02 07:07:53;;;;;;;;;;;18.20;99.90;;;;;;4979015;28;19926;-64
2022/11/02 07:10:20;;;;;;;;;;;18.20;99.90;;;;;;4968517;28;19922;-64
2022/11/02 07:12:58;;;;;;;;;;;18.20;99.90;;;;;;4979026;28;19926;-64
2022/11/02 07:15:26;;;;;;;;;;;18.20;99.90;;;;;;4972453;28;19926;-64
2022/11/02 07:17:53;;;;;;;;;;;18.20;99.90;;;;;;4970193;28;19930;-66
2022/11/02 07:20:20;;;;;;;;;;;18.20;99.90;;;;;;4967374;28;20428;-66
2022/11/02 07:22:51;;;;;;;;;;;18.20;99.90;;;;;;4966480;28;19925;-65
2022/11/02 07:25:19;;;;;;;;;;;18.30;99.90;;;;;;4988492;28;20346;-64
2022/11/02 07:27:46;;;;;;;;;;;18.30;99.90;;;;;;5009106;28;19928;-66
2022/11/02 07:30:13;;;;;;;;;;;18.30;99.90;;;;;;5002312;28;19990;-65
2022/11/02 07:32:41;;;;;;;;;;;18.30;99.90;;;;;;5001317;28;19928;-64
2022/11/02 07:35:09;;;;;;;;;;;18.30;99.90;;;;;;5007999;28;19976;-65
2022/11/02 07:37:36;;;;;;;;;;;18.40;99.90;;;;;;5008737;28;19925;-66
2022/11/02 07:40:03;;;;;;;;;;;18.30;99.90;;;;;;5005278;28;20617;-66
2022/11/02 07:42:30;;;;;;;;;;;18.30;99.90;;;;;;5007749;28;19921;-63
2022/11/02 07:44:57;;;;;;;;;;;18.30;99.90;;;;;;5004648;28;19925;-64
2022/11/02 07:47:25;;;;;;;;;;;18.30;99.90;;;;;;5007335;28;19933;-64
2022/11/02 07:49:52;;;;;;;;;;;18.30;99.90;;;;;;5003696;28;19932;-65
2022/11/02 07:52:19;;;;;;;;;;;18.30;99.90;;;;;;5004406;28;20373;-65
2022/11/02 07:54:46;;;;;;;;;;;18.30;99.90;;;;;;5007698;28;19945;-64
2022/11/02 07:57:13;;;;;;;;;;;18.20;99.90;;;;;;5007935;28;19933;-64
2022/11/02 07:59:40;;;;;;;;;;;18.20;99.90;;;;;;5000969;28;19922;-64
2022/11/02 08:02:09;;;;;;;;;;;18.20;99.90;;;;;;5000461;28;19990;-66
2022/11/02 08:04:36;;;;;;;;;;;18.20;99.90;;;;;;5007794;28;19921;-63
2022/11/02 08:07:09;;;;;;;;;;;18.20;99.90;;;;;;5007155;28;19925;-64
2022/11/02 08:09:37;;;;;;;;;;;18.20;99.90;;;;;;5006564;28;20361;-65
2022/11/02 08:12:04;;;;;;;;;;;18.20;99.90;;;;;;5001587;28;19937;-65
2022/11/02 08:14:31;;;;;;;;;;;18.20;99.90;;;;;;5004742;28;19929;-65
2022/11/02 08:16:58;;;;;;;;;;;18.20;99.90;;;;;;5006732;28;19921;-65
2022/11/02 08:19:25;;;;;;;;;;;18.20;99.90;;;;;;5001737;28;19933;-64
2022/11/02 08:21:54;;;;;;;;;;;18.20;99.90;;;;;;5002726;28;19930;-65
2022/11/02 08:24:22;;;;;;;;;;;18.20;99.90;;;;;;5007439;28;19922;-64
2022/11/02 08:26:49;;;;;;;;;;;18.20;99.90;;;;;;5007728;28;20399;-64
2022/11/02 08:29:21;;;;;;;;;;;18.20;99.90;;;;;;5006485;28;20424;-66
2022/11/02 08:31:48;;;;;;;;;;;18.20;99.90;;;;;;5011269;28;19936;-65
2022/11/02 08:34:15;;;;;;;;;;;18.20;99.90;;;;;;5012340;28;19937;-65
2022/11/02 08:36:42;;;;;;;;;;;18.20;99.90;;;;;;5009826;28;19932;-65
2022/11/02 08:39:09;;;;;;;;;;;18.10;99.90;;;;;;5008784;28;20290;-65
2022/11/02 08:41:43;;;;;;;;;;;18.10;99.90;;;;;;5007778;28;20389;-64
2022/11/02 08:44:10;;;;;;;;;;;18.10;99.90;;;;;;5008000;28;20316;-64
2022/11/02 08:46:37;;;;;;;;;;;18.10;99.90;;;;;;5008605;28;19932;-64
2022/11/02 08:49:05;;;;;;;;;;;18.10;99.90;;;;;;4997422;28;19926;-64
2022/11/02 08:51:32;;;;;;;;;;;18.10;99.90;;;;;;5000100;28;20852;-64
2022/11/02 08:53:59;;;;;;;;;;;18.10;99.90;;;;;;5007281;28;19925;-66
2022/11/02 08:56:27;;;;;;;;;;;18.00;99.90;;;;;;5010342;28;19933;-65
2022/11/02 08:58:54;;;;;;;;;;;18.10;99.90;;;;;;5010940;28;20048;-65
2022/11/02 09:01:21;;;;;;;;;;;18.10;99.90;;;;;;5006322;28;20417;-63
2022/11/02 09:03:48;;;;;;;;;;;18.10;99.90;;;;;;5008344;28;19930;-65
2022/11/02 09:06:16;;;;;;;;;;;18.10;99.90;;;;;;5005392;28;19933;-64
2022/11/02 09:08:43;;;;;;;;;;;18.10;99.90;;;;;;5010768;28;19945;-64
2022/11/02 09:11:10;;;;;;;;;;;18.10;99.90;;;;;;5006901;28;20404;-63
2022/11/02 09:13:37;;;;;;;;;;;18.10;99.90;;;;;;5007106;28;19921;-66
2022/11/02 09:16:04;;;;;;;;;;;18.00;99.90;;;;;;5009025;28;19932;-65
2022/11/02 09:18:31;;;;;;;;;;;18.10;99.90;;;;;;5009104;28;20224;-66
2022/11/02 09:21:03;;;;;;;;;;;18.10;99.90;;;;;;5010476;28;19921;-65
2022/11/02 09:23:30;;;;;;;;;;;18.10;99.90;;;;;;5004377;28;20008;-64
2022/11/02 09:25:58;;;;;;;;;;;18.10;99.90;;;;;;5008177;28;20297;-65
2022/11/02 09:28:25;;;;;;;;;;;18.10;99.90;;;;;;5011129;28;19921;-64
2022/11/02 09:30:52;;;;;;;;;;;18.10;99.90;;;;;;5006160;28;19926;-65
2022/11/02 09:33:19;;;;;;;;;;;18.00;99.90;;;;;;5008372;28;20408;-65
2022/11/02 09:35:47;;;;;;;;;;;18.00;99.90;;;;;;5009143;28;20389;-65
2022/11/02 09:38:17;;;;;;;;;;;18.00;99.90;;;;;;4992781;28;19937;-65
2022/11/02 09:40:53;;;;;;;;;;;18.00;99.90;;;;;;5008849;28;20361;-64
2022/11/02 09:43:37;;;;;;;;;;;18.10;99.90;;;;;;5010228;28;19932;-65
2022/11/02 09:46:23;;;;;;;;;;;18.10;99.90;;;;;;5010098;28;19929;-65
2022/11/02 09:48:55;;;;;;;;;;;18.10;99.90;;;;;;5006056;28;19925;-65
2022/11/02 09:51:22;;;;;;;;;;;18.10;99.90;;;;;;5010398;28;19925;-63
2022/11/02 09:53:49;;;;;;;;;;;18.00;99.90;;;;;;5006428;28;20298;-65
2022/11/02 09:56:20;;;;;;;;;;;18.00;99.90;;;;;;5002592;28;19921;-65
2022/11/02 09:58:52;;;;;;;;;;;18.00;99.90;;;;;;5009418;28;19929;-64
2022/11/02 10:01:22;;;;;;;;;;;18.10;99.90;;;;;;5005419;28;19933;-64
2022/11/02 10:04:01;;;;;;;;;;;18.10;99.90;;;;;;5011814;28;19937;-64
2022/11/02 10:06:29;;;;;;;;;;;18.00;99.90;;;;;;5009137;28;19929;-64
2022/11/02 10:09:05;;;;;;;;;;;18.10;99.90;;;;;;5013212;28;19921;-64
2022/11/02 10:11:43;;;;;;;;;;;18.10;99.90;;;;;;5010277;28;19921;-64
2022/11/02 10:14:19;;;;;;;;;;;18.10;99.90;;;;;;5004667;28;19928;-65
2022/11/02 10:16:48;;;;;;;;;;;18.10;99.90;;;;;;5010604;28;19921;-65
2022/11/02 10:19:17;;;;;;;;;;;18.10;99.90;;;;;;5006617;28;19934;-65
2022/11/02 10:21:45;;;;;;;;;;;18.10;99.90;;;;;;5010215;28;19933;-65
2022/11/02 10:24:15;;;;;;;;;;;18.00;99.90;;;;;;5007320;28;20420;-64
2022/11/02 10:26:43;;;;;;;;;;;18.10;99.90;;;;;;5004182;28;19921;-65
2022/11/02 10:29:20;;;;;;;;;;;18.00;99.90;;;;;;5009712;28;19932;-64
2022/11/02 10:31:47;;;;;;;;;;;18.00;99.90;;;;;;5008119;28;20290;-66
2022/11/02 10:34:14;;;;;;;;;;;18.00;99.90;;;;;;5009266;28;19933;-65
2022/11/02 10:36:48;;;;;;;;;;;18.10;99.90;;;;;;5004620;28;19926;-63
2022/11/02 10:39:21;;;;;;;;;;;18.00;99.90;;;;;;5003878;28;20332;-65
2022/11/02 10:41:51;;;;;;;;;;;18.10;99.90;;;;;;5007859;28;19926;-66
2022/11/02 10:44:41;;;;;;;;;;;18.00;99.90;;;;;;5008465;28;19925;-64
2022/11/02 10:47:08;;;;;;;;;;;18.10;99.90;;;;;;4994814;28;19948;-64
2022/11/02 10:49:48;;;;;;;;;;;18.10;99.90;;;;;;5001955;28;19929;-66
2022/11/02 10:52:15;;;;;;;;;;;18.10;99.90;;;;;;5007951;28;19933;-64
2022/11/02 10:54:42;;;;;;;;;;;18.10;99.90;;;;;;5008916;28;20262;-64
2022/11/02 10:57:13;;;;;;;;;;;18.10;99.90;;;;;;5007833;28;19932;-66
2022/11/02 10:59:40;;;;;;;;;;;18.10;99.90;;;;;;5009262;28;19921;-65
2022/11/02 11:02:14;;;;;;;;;;;18.10;99.90;;;;;;5011234;28;19925;-64
2022/11/02 11:04:41;;;;;;;;;;;18.10;99.90;;;;;;5009062;28;19932;-64
2022/11/02 11:07:14;;;;;;;;;;;18.10;99.90;;;;;;5005357;28;19925;-64
2022/11/02 11:09:47;;;;;;;;;;;18.10;99.90;;;;;;5002925;28;19933;-64
2022/11/02 11:12:19;;;;;;;;;;;18.10;99.90;;;;;;5003194;28;19921;-64
2022/11/02 11:14:51;;;;;;;;;;;18.10;99.90;;;;;;5007100;28;19921;-64
2022/11/02 11:17:39;;;;;;;;;;;18.10;99.90;;;;;;5020265;28;20381;-65
2022/11/02 11:20:26;;;;;;;;;;;18.10;99.90;;;;;;5012891;28;19996;-65
2022/11/02 11:23:26;;;;;;;;;;;18.10;99.90;;;;;;5011145;28;19932;-65
2022/11/02 11:25:56;;;;;;;;;;;18.10;99.90;;;;;;4982617;28;20007;-64
2022/11/02 11:28:29;;;;;;;;;;;18.10;99.90;;;;;;5025386;28;19925;-65
2022/11/02 11:31:05;;;;;;;;;;;18.10;99.90;;;;;;5015439;28;19925;-63
2022/11/02 11:33:39;;;;;;;;;;;18.10;99.90;;;;;;5008216;28;19921;-65
2022/11/02 11:36:08;;;;;;;;;;;18.10;99.90;;;;;;5007024;28;19930;-65
2022/11/02 11:38:35;;;;;;;;;;;18.10;99.90;;;;;;5010669;28;19940;-64
2022/11/02 11:41:02;;;;;;;;;;;18.10;99.90;;;;;;5008635;28;19921;-65
2022/11/02 11:43:33;;;;;;;;;;;18.10;99.90;;;;;;5009452;28;19925;-64
2022/11/02 11:46:02;;;;;;;;;;;18.10;99.90;;;;;;5008514;28;19929;-66
2022/11/02 11:48:52;;;;;;;;;;;18.10;99.90;;;;;;5009317;28;19925;-64
2022/11/02 11:51:30;;;;;;;;;;;18.10;99.90;;;;;;5003908;28;19926;-65
2022/11/02 11:54:05;;;;;;;;;;;18.10;99.90;;;;;;5004406;28;19940;-65
2022/11/02 11:56:33;;;;;;;;;;;18.10;99.90;;;;;;5004112;28;19921;-64
2022/11/02 11:59:00;;;;;;;;;;;18.10;99.90;;;;;;5010776;28;19984;-65
2022/11/02 12:01:36;;;;;;;;;;;18.10;99.90;;;;;;5011452;28;19932;-64
2022/11/02 12:04:04;;;;;;;;;;;18.10;99.90;;;;;;5007600;28;19929;-65
2022/11/02 12:06:50;;;;;;;;;;;18.10;99.90;;;;;;5010284;28;20400;-65
2022/11/02 12:09:40;;;;;;;;;;;18.10;99.90;;;;;;5007665;28;19925;-65
2022/11/02 12:12:08;;;;;;;;;;;18.10;99.90;;;;;;5008746;28;20290;-65
2022/11/02 12:14:37;;;;;;;;;;;18.10;99.90;;;;;;5007909;28;19926;-65
2022/11/02 12:17:23;;;;;;;;;;;18.20;99.90;;;;;;5002038;28;19955;-66
2022/11/02 12:20:00;;;;;;;;;;;18.10;99.90;;;;;;5008334;28;20320;-64
2022/11/02 12:22:42;;;;;;;;;;;18.10;99.90;;;;;;5006068;28;19925;-65
2022/11/02 12:25:24;;;;;;;;;;;18.10;99.90;;;;;;5003177;28;20271;-64
2022/11/02 12:27:56;;;;;;;;;;;18.20;99.90;;;;;;5008934;28;19928;-65
2022/11/02 12:30:29;;;;;;;;;;;18.10;99.90;;;;;;5014014;28;20324;-65
2022/11/02 12:33:16;;;;;;;;;;;18.20;99.90;;;;;;5013490;28;19929;-65
2022/11/02 12:35:43;;;;;;;;;;;18.20;99.90;;;;;;5007487;28;19932;-66
2022/11/02 12:38:10;;;;;;;;;;;18.20;99.90;;;;;;5012540;28;19928;-64
2022/11/02 12:40:56;;;;;;;;;;;18.20;99.90;;;;;;5008079;28;19925;-66
2022/11/02 12:43:43;;;;;;;;;;;18.20;99.90;;;;;;5012188;28;19925;-65
2022/11/02 12:46:29;;;;;;;;;;;18.20;99.90;;;;;;4981511;28;20298;-64
2022/11/02 12:49:13;;;;;;;;;;;18.20;99.90;;;;;;5007771;28;19932;-66
2022/11/02 12:51:40;;;;;;;;;;;18.20;99.90;;;;;;5007680;28;19921;-65
2022/11/02 12:54:10;;;;;;;;;;;18.10;99.90;;;;;;5009602;28;19926;-64
2022/11/02 12:56:50;;;;;;;;;;;18.10;99.90;;;;;;5011759;28;20316;-64
2022/11/02 12:59:17;;;;;;;;;;;18.20;99.90;;;;;;5010824;28;19932;-66
2022/11/02 13:01:46;;;;;;;;;;;18.20;99.90;;;;;;5011921;28;20412;-65
2022/11/02 13:04:13;;;;;;;;;;;18.20;99.90;;;;;;5008763;28;19933;-65
2022/11/02 13:06:42;;;;;;;;;;;18.30;99.90;;;;;;5012365;28;19921;-66
2022/11/02 13:09:18;;;;;;;;;;;18.30;99.90;;;;;;5009937;28;19925;-67
2022/11/02 13:11:47;;;;;;;;;;;18.20;99.90;;;;;;5004905;28;19925;-64
2022/11/02 13:14:18;;;;;;;;;;;18.20;99.90;;;;;;5007017;28;20329;-65
2022/11/02 13:16:54;;;;;;;;;;;18.20;99.90;;;;;;5012701;28;19925;-65
2022/11/02 13:19:31;;;;;;;;;;;18.20;99.90;;;;;;4996080;28;20324;-65
2022/11/02 13:21:59;;;;;;;;;;;18.20;99.90;;;;;;5000831;28;20308;-65
2022/11/02 13:24:28;;;;;;;;;;;18.20;99.90;;;;;;5012910;28;19922;-67
2022/11/02 13:26:59;;;;;;;;;;;18.10;99.90;;;;;;5014987;28;19922;-67
2022/11/02 13:29:44;;;;;;;;;;;18.10;99.90;;;;;;5017850;28;19921;-65
2022/11/02 13:32:26;;;;;;;;;;;18.20;99.90;;;;;;5017242;28;19932;-65
2022/11/02 13:35:03;;;;;;;;;;;18.10;99.90;;;;;;5022383;28;19926;-65
2022/11/02 13:37:37;;;;;;;;;;;18.10;99.90;;;;;;5014773;28;20419;-67
2022/11/02 13:40:06;;;;;;;;;;;18.10;99.90;;;;;;5009060;28;19928;-66
2022/11/02 13:42:45;;;;;;;;;;;18.10;99.90;;;;;;4999573;28;19929;-66
2022/11/02 13:45:31;;;;;;;;;;;18.10;99.90;;;;;;5008312;28;19968;-66
2022/11/02 13:48:02;;;;;;;;;;;18.10;99.90;;;;;;5009104;28;19922;-66
2022/11/02 13:50:31;;;;;;;;;;;18.10;99.90;;;;;;5003344;28;19932;-66
2022/11/02 13:53:01;;;;;;;;;;;18.10;99.90;;;;;;5010198;28;19921;-66
2022/11/02 13:55:40;;;;;;;;;;;18.10;99.90;;;;;;5005437;28;19921;-64
2022/11/02 13:58:38;;;;;;;;;;;18.10;99.90;;;;;;5007670;28;19925;-66
2022/11/02 14:01:07;;;;;;;;;;;18.10;99.90;;;;;;5004666;28;19934;-64
2022/11/02 14:03:49;;;;;;;;;;;18.10;99.90;;;;;;5010652;28;19932;-64
2022/11/02 14:06:17;;;;;;;;;;;18.10;99.90;;;;;;5004124;28;19929;-64
2022/11/02 14:08:49;;;;;;;;;;;18.10;99.90;;;;;;5010395;28;19948;-66
2022/11/02 14:11:16;;;;;;;;;;;18.10;99.90;;;;;;5008714;28;19933;-64
2022/11/02 14:13:52;;;;;;;;;;;18.00;99.90;;;;;;5010702;28;20308;-66
2022/11/02 14:16:51;;;;;;;;;;;18.10;99.90;;;;;;5006959;28;19926;-64
2022/11/02 14:19:19;;;;;;;;;;;18.00;99.90;;;;;;4973872;28;19929;-66
2022/11/02 14:21:50;;;;;;;;;;;18.10;99.90;;;;;;5009990;28;19922;-64
2022/11/02 14:24:32;;;;;;;;;;;18.10;99.90;;;;;;5008258;28;20404;-66
2022/11/02 14:27:00;;;;;;;;;;;18.10;99.90;;;;;;5005595;28;20419;-65
2022/11/02 14:29:37;;;;;;;;;;;18.10;99.90;;;;;;5005865;28;19929;-65
2022/11/02 14:32:12;;;;;;;;;;;18.10;99.90;;;;;;5009847;28;20357;-64
2022/11/02 14:34:59;;;;;;;;;;;18.10;99.90;;;;;;5004445;28;19925;-63
2022/11/02 14:37:45;;;;;;;;;;;18.10;99.90;;;;;;5009494;28;20329;-62
2022/11/02 14:40:18;;;;;;;;;;;18.10;99.90;;;;;;5005703;28;19925;-63
2022/11/02 14:42:57;;;;;;;;;;;18.10;99.90;;;;;;5007296;28;19925;-64
2022/11/02 14:45:28;;;;;;;;;;;18.10;99.90;;;;;;5007998;28;19926;-64
2022/11/02 14:48:01;;;;;;;;;;;18.10;99.90;;;;;;5009611;28;20352;-63
2022/11/02 14:50:29;;;;;;;;;;;18.10;99.90;;;;;;5003587;28;20385;-59
2022/11/02 14:53:01;;;;;;;;;;;18.10;99.90;;;;;;5003134;28;19933;-61